Time;durP1;ratioP1;P1;durP2;ratioP2;P2;SDS_P1;SDS_P2;PMS_P1;PMS_P2;Temp;Humidity;BMP_temperature;BMP_pressure;BME280_temperature;BME280_humidity;BME280_pressure;Samples;Min_cycle;Max_cycle;Signal;HPM_P1;HPM_P2
2021/05/23 00:01:15;;;;;;;1.20;1.10;;;;;;;9.59;89.00;99704.66;5072435;28;20522;-72
2021/05/23 00:03:40;;;;;;;0.83;0.83;;;;;;;9.60;88.86;99702.72;5072284;28;20254;-72
2021/05/23 00:06:05;;;;;;;1.00;0.90;;;;;;;9.62;88.88;99712.19;5072239;28;20261;-71
2021/05/23 00:08:31;;;;;;;1.10;1.10;;;;;;;9.63;88.44;99707.53;5071850;28;20171;-71
2021/05/23 00:11:00;;;;;;;0.87;0.63;;;;;;;9.66;88.81;99717.78;5071927;28;20175;-72
2021/05/23 00:13:32;;;;;;;1.03;0.50;;;;;;;9.65;88.75;99702.56;5072108;28;20167;-72
2021/05/23 00:16:23;;;;;;;0.80;0.80;;;;;;;9.67;88.99;99703.03;5071907;28;20175;-72
2021/05/23 00:18:52;;;;;;;1.30;1.20;;;;;;;9.65;88.79;99700.63;5070623;28;20297;-72
2021/05/23 00:21:20;;;;;;;1.57;0.90;;;;;;;9.65;89.26;99703.34;5071886;28;20167;-72
2021/05/23 00:23:46;;;;;;;0.80;0.80;;;;;;;9.64;88.99;99715.38;5071850;28;20170;-72
2021/05/23 00:26:12;;;;;;;1.17;1.07;;;;;;;9.63;88.96;99715.72;5071843;28;20380;-72
2021/05/23 00:28:38;;;;;;;0.73;0.73;;;;;;;9.62;89.00;99719.56;5070254;28;20585;-72
2021/05/23 00:31:05;;;;;;;0.90;0.80;;;;;;;9.61;89.64;99709.78;5071754;28;20179;-72
2021/05/23 00:33:31;;;;;;;0.80;0.80;;;;;;;9.61;89.05;99707.06;5071710;28;20166;-72
2021/05/23 00:35:57;;;;;;;1.40;1.30;;;;;;;9.61;89.38;99716.03;5071581;28;20174;-72
2021/05/23 00:38:22;;;;;;;0.93;0.93;;;;;;;9.62;88.69;99714.13;5071486;28;20202;-72
2021/05/23 00:40:48;;;;;;;0.87;0.73;;;;;;;9.64;88.80;99720.03;5071508;28;20395;-72
2021/05/23 00:43:18;;;;;;;0.37;0.37;;;;;;;9.65;88.21;99714.25;5071721;28;20179;-72
2021/05/23 00:45:48;;;;;;;0.90;0.90;;;;;;;9.64;88.11;99715.38;5071388;28;20292;-71
2021/05/23 00:48:14;;;;;;;2.50;0.80;;;;;;;9.65;88.39;99721.66;5071364;28;20171;-72
2021/05/23 00:50:39;;;;;;;0.87;0.70;;;;;;;9.68;88.39;99726.44;5071380;28;20265;-72
2021/05/23 00:53:06;;;;;;;1.13;0.90;;;;;;;9.64;88.78;99714.59;5071308;28;20163;-72
2021/05/23 00:55:32;;;;;;;0.67;0.67;;;;;;;9.61;88.85;99716.03;5071539;28;20268;-72
2021/05/23 00:57:58;;;;;;;0.73;0.73;;;;;;;9.59;89.18;99714.75;5071066;28;20669;-71
2021/05/23 01:00:32;;;;;;;0.43;0.43;;;;;;;9.57;89.22;99712.38;5071112;28;20197;-71
2021/05/23 01:02:59;;;;;;;0.60;0.60;;;;;;;9.57;89.43;99706.91;5071237;28;20667;-72
2021/05/23 01:05:25;;;;;;;5.00;2.33;;;;;;;9.59;89.32;99704.66;5071150;28;20186;-71
2021/05/23 01:07:50;;;;;;;0.70;0.70;;;;;;;9.60;89.39;99705.47;5071008;28;20235;-72
2021/05/23 01:10:19;;;;;;;0.20;0.20;;;;;;;9.60;89.39;99714.44;5071446;28;20182;-72
2021/05/23 01:12:53;;;;;;;0.60;0.60;;;;;;;9.60;89.45;99713.63;5071082;28;20179;-72
2021/05/23 01:15:30;;;;;;;1.77;1.67;;;;;;;9.60;89.62;99719.09;5070978;28;20264;-72
2021/05/23 01:18:00;;;;;;;0.67;0.67;;;;;;;9.61;89.86;99715.25;5071058;28;20241;-72
2021/05/23 01:20:34;;;;;;;0.70;0.70;;;;;;;9.61;89.71;99715.25;5071329;28;20240;-72
2021/05/23 01:23:18;;;;;;;0.00;0.00;;;;;;;9.59;89.26;99715.56;5071003;28;20173;-72
2021/05/23 01:25:46;;;;;;;0.93;0.93;;;;;;;9.60;89.49;99713.63;5070923;28;20758;-72
2021/05/23 01:28:13;;;;;;;0.97;0.87;;;;;;;9.62;89.55;99723.09;5069384;28;20178;-71
2021/05/23 01:30:43;;;;;;;1.00;1.00;;;;;;;9.62;89.67;99719.56;5070794;28;20304;-72
2021/05/23 01:33:12;;;;;;;1.10;1.10;;;;;;;9.62;89.59;99719.56;5071182;28;20155;-72
2021/05/23 01:35:40;;;;;;;0.63;0.63;;;;;;;9.63;89.06;99713.00;5071073;28;20254;-72
2021/05/23 01:38:12;;;;;;;0.70;0.70;;;;;;;9.64;89.55;99717.31;5070694;28;20221;-71
2021/05/23 01:40:39;;;;;;;0.77;0.77;;;;;;;9.68;89.65;99715.53;5070829;28;20212;-72
2021/05/23 01:43:06;;;;;;;1.53;1.03;;;;;;;9.67;89.50;99711.22;5070772;28;20585;-71
2021/05/23 01:45:32;;;;;;;0.50;0.50;;;;;;;9.70;89.51;99716.03;5071016;28;20521;-72
2021/05/23 01:47:59;;;;;;;0.63;0.63;;;;;;;9.68;89.72;99726.44;5070552;28;20170;-72
2021/05/23 01:50:25;;;;;;;0.60;0.37;;;;;;;9.64;89.91;99715.38;5070745;28;20219;-71
2021/05/23 01:52:53;;;;;;;0.90;0.90;;;;;;;9.62;90.62;99720.38;5070907;28;20618;-71
2021/05/23 01:55:20;;;;;;;0.50;0.50;;;;;;;9.61;91.14;99720.69;5070612;28;20174;-72
2021/05/23 01:57:45;;;;;;;0.80;0.80;;;;;;;9.60;91.13;99724.53;5070500;28;20228;-71
2021/05/23 02:00:12;;;;;;;0.63;0.63;;;;;;;9.60;91.65;99719.09;5070496;28;20719;-72
2021/05/23 02:02:38;;;;;;;1.17;1.07;;;;;;;9.56;91.19;99716.22;5070843;28;20305;-72
2021/05/23 02:05:05;;;;;;;2.87;1.30;;;;;;;9.58;91.88;99713.16;5070330;28;20261;-72
2021/05/23 02:07:31;;;;;;;1.37;1.27;;;;;;;9.57;92.04;99717.00;5070365;28;20190;-72
2021/05/23 02:09:57;;;;;;;3.30;1.10;;;;;;;9.56;92.29;99721.66;5069160;28;20182;-71
2021/05/23 02:12:22;;;;;;;0.80;0.80;;;;;;;9.58;91.62;99715.88;5070658;28;20189;-72
2021/05/23 02:14:48;;;;;;;0.73;0.73;;;;;;;9.59;92.27;99704.66;5070760;28;20257;-72
2021/05/23 02:17:13;;;;;;;0.80;0.80;;;;;;;9.59;91.06;99709.31;5070424;28;20198;-71
2021/05/23 02:19:38;;;;;;;4.00;0.77;;;;;;;9.63;91.64;99702.06;5070512;28;20687;-72
2021/05/23 02:22:04;;;;;;;1.37;0.87;;;;;;;9.63;92.16;99702.88;5070662;28;20218;-71
2021/05/23 02:24:29;;;;;;;0.60;0.60;;;;;;;9.70;91.78;99713.31;5070420;28;20174;-72
2021/05/23 02:26:54;;;;;;;0.77;0.77;;;;;;;9.73;91.05;99705.28;5070342;28;20678;-72
2021/05/23 02:29:20;;;;;;;0.80;0.80;;;;;;;9.72;91.11;99714.59;5070254;28;20597;-72
2021/05/23 02:31:45;;;;;;;0.67;0.67;;;;;;;9.74;90.65;99708.81;5070340;28;20198;-72
2021/05/23 02:34:10;;;;;;;0.60;0.60;;;;;;;9.69;90.39;99709.78;5070449;28;20174;-72
2021/05/23 02:36:36;;;;;;;0.93;0.93;;;;;;;9.69;90.25;99717.97;5070790;28;20181;-72
2021/05/23 02:39:02;;;;;;;0.70;0.70;;;;;;;9.70;90.09;99710.59;5070212;28;20218;-72
2021/05/23 02:41:27;;;;;;;0.97;0.90;;;;;;;9.70;90.30;99710.59;5071721;28;20669;-72
2021/05/23 02:43:53;;;;;;;0.50;0.50;;;;;;;9.68;90.50;99707.34;5073879;28;20170;-73
2021/05/23 02:46:18;;;;;;;0.80;0.80;;;;;;;9.68;90.71;99708.16;5073818;28;20170;-72
2021/05/23 02:48:43;;;;;;;1.00;1.00;;;;;;;9.73;91.19;99713.47;5073712;28;20635;-72
2021/05/23 02:51:09;;;;;;;0.80;0.80;;;;;;;9.75;91.40;99710.41;5073887;28;20178;-72
2021/05/23 02:53:34;;;;;;;1.27;1.17;;;;;;;9.75;90.68;99711.22;5072358;28;20179;-71
2021/05/23 02:55:59;;;;;;;0.53;0.53;;;;;;;9.72;89.99;99713.78;5073601;28;20194;-72
2021/05/23 02:58:25;;;;;;;0.47;0.47;;;;;;;9.67;90.03;99703.03;5073430;28;20903;-72
2021/05/23 03:00:50;;;;;;;0.80;0.80;;;;;;;9.64;90.42;99714.59;5073386;28;20201;-73
2021/05/23 03:03:16;;;;;;;2.93;1.50;;;;;;;9.68;89.90;99710.88;5073552;28;20174;-72
2021/05/23 03:05:43;;;;;;;0.67;0.60;;;;;;;9.57;89.34;99715.09;5073384;28;20179;-72
2021/05/23 03:08:09;;;;;;;0.60;0.60;;;;;;;9.58;89.07;99722.16;5073127;28;20178;-72
2021/05/23 03:10:38;;;;;;;0.00;0.00;;;;;;;9.53;88.57;99725.03;5073404;28;20190;-72
2021/05/23 03:13:05;;;;;;;0.87;0.87;;;;;;;9.42;88.97;99727.28;5073328;28;20240;-72
2021/05/23 03:15:32;;;;;;;0.23;0.20;;;;;;;9.37;90.12;99734.81;5073542;28;20186;-72
2021/05/23 03:17:57;;;;;;;0.10;0.10;;;;;;;9.32;90.90;99743.16;5073078;28;20264;-72
2021/05/23 03:20:25;;;;;;;1.70;1.70;;;;;;;9.25;91.74;99749.88;5073230;28;20622;-71
2021/05/23 03:22:53;;;;;;;0.33;0.33;;;;;;;9.20;92.09;99744.59;5073167;28;20202;-72
2021/05/23 03:25:19;;;;;;;0.03;0.03;;;;;;;9.18;92.44;99752.28;5073194;28;20175;-72
2021/05/23 03:27:45;;;;;;;0.37;0.37;;;;;;;9.17;92.70;99766.22;5071701;28;20556;-72
2021/05/23 03:30:14;;;;;;;0.47;0.20;;;;;;;9.06;93.17;99754.03;5073042;28;20261;-72
2021/05/23 03:32:41;;;;;;;0.07;0.07;;;;;;;9.01;93.84;99770.53;5073161;28;20174;-72
2021/05/23 03:35:08;;;;;;;0.30;0.30;;;;;;;9.00;95.23;99777.09;5072854;28;20601;-72
2021/05/23 03:37:34;;;;;;;0.90;0.90;;;;;;;8.98;95.28;99776.63;5073209;28;20196;-72
2021/05/23 03:39:59;;;;;;;0.70;0.70;;;;;;;8.95;95.46;99780.75;5072754;28;20166;-71
2021/05/23 03:42:25;;;;;;;0.30;0.30;;;;;;;8.93;95.84;99772.91;5072734;28;20622;-71
2021/05/23 03:44:51;;;;;;;0.80;0.80;;;;;;;8.92;96.35;99784.91;5072708;28;20213;-72
2021/05/23 03:47:16;;;;;;;1.13;1.03;;;;;;;8.93;96.61;99783.81;5072783;28;20171;-71
2021/05/23 03:49:41;;;;;;;0.87;0.87;;;;;;;8.92;95.98;99784.13;5072649;28;20637;-71
2021/05/23 03:52:09;;;;;;;0.83;0.80;;;;;;;8.90;96.30;99798.06;5071759;28;20185;-72
2021/05/23 03:54:34;;;;;;;0.50;0.50;;;;;;;8.90;96.03;99795.34;5072009;28;20224;-72
2021/05/23 03:57:00;;;;;;;1.20;0.77;;;;;;;8.91;96.66;99801.59;5071117;28;20171;-73
2021/05/23 03:59:26;;;;;;;0.73;0.73;;;;;;;8.90;96.20;99795.34;5072189;28;20197;-72
2021/05/23 04:01:52;;;;;;;0.70;0.70;;;;;;;8.94;96.07;99803.66;5072281;28;20171;-72
2021/05/23 04:04:20;;;;;;;0.83;0.83;;;;;;;8.96;96.50;99806.88;5072632;28;20174;-72
2021/05/23 04:06:46;;;;;;;0.80;0.80;;;;;;;9.00;96.28;99812.53;5072124;28;20641;-72
2021/05/23 04:09:12;;;;;;;0.63;0.63;;;;;;;9.01;96.77;99809.47;5072106;28;20213;-72
2021/05/23 04:11:40;;;;;;;0.67;0.67;;;;;;;9.01;96.40;99816.84;5072223;28;20171;-73
2021/05/23 04:14:06;;;;;;;1.07;0.97;;;;;;;9.05;96.92;99813.16;5072015;28;20181;-73
2021/05/23 04:16:33;;;;;;;1.87;0.90;;;;;;;9.09;96.76;99821.50;5072088;28;20623;-72
2021/05/23 04:18:58;;;;;;;0.80;0.80;;;;;;;9.09;96.88;99818.78;5071900;28;20194;-72
2021/05/23 04:21:24;;;;;;;0.60;0.60;;;;;;;9.09;96.95;99821.50;5072013;28;20174;-72
2021/05/23 04:23:49;;;;;;;0.50;0.50;;;;;;;9.11;96.67;99827.44;5072125;28;20198;-72
2021/05/23 04:26:15;;;;;;;0.60;0.60;;;;;;;9.10;96.68;99823.91;5071997;28;20181;-72
2021/05/23 04:28:40;;;;;;;0.80;0.80;;;;;;;9.12;97.29;99829.06;5071721;28;20232;-72
2021/05/23 04:31:05;;;;;;;0.80;0.80;;;;;;;9.10;96.75;99826.63;5071822;28;20531;-72
2021/05/23 04:33:31;;;;;;;1.17;1.03;;;;;;;9.15;97.24;99834.69;5071772;28;20463;-72
2021/05/23 04:35:56;;;;;;;0.83;0.83;;;;;;;9.14;96.33;99832.28;5071890;28;20171;-72
2021/05/23 04:38:21;;;;;;;0.70;0.70;;;;;;;9.15;96.11;99836.59;5071465;28;20282;-72
2021/05/23 04:40:47;;;;;;;0.57;0.57;;;;;;;9.17;96.66;99843.34;5071673;28;20645;-72
2021/05/23 04:43:13;;;;;;;0.90;0.90;;;;;;;9.20;95.98;99847.34;5071579;28;20224;-72
2021/05/23 04:45:39;;;;;;;0.77;0.77;;;;;;;9.20;95.73;99847.34;5071532;28;20166;-72
2021/05/23 04:48:06;;;;;;;1.07;0.90;;;;;;;9.23;96.09;99852.16;5070045;28;20273;-72
2021/05/23 04:50:32;;;;;;;0.57;0.57;;;;;;;9.17;96.09;99859.69;5071467;28;20166;-72
2021/05/23 04:52:57;;;;;;;0.83;0.80;;;;;;;9.14;95.90;99862.25;5071426;28;20602;-72
2021/05/23 04:55:23;;;;;;;0.87;0.80;;;;;;;9.11;96.25;99865.59;5071517;28;20177;-72
2021/05/23 04:57:48;;;;;;;1.10;1.07;;;;;;;9.08;96.92;99863.50;5072046;28;20202;-72
2021/05/23 05:00:14;;;;;;;0.60;0.60;;;;;;;9.07;96.87;99879.03;5072169;28;20178;-73
2021/05/23 05:02:41;;;;;;;0.90;0.90;;;;;;;9.08;97.48;99879.84;5071250;28;20175;-72
2021/05/23 05:05:08;;;;;;;0.57;0.57;;;;;;;9.10;97.70;99872.16;5070644;28;20193;-73
2021/05/23 05:07:34;;;;;;;1.27;1.17;;;;;;;9.11;97.62;99890.94;5071089;28;20266;-73
2021/05/23 05:09:59;;;;;;;0.80;0.80;;;;;;;9.07;97.20;99891.88;5071130;28;20258;-72
2021/05/23 05:12:24;;;;;;;0.53;0.53;;;;;;;9.07;97.14;99895.41;5071057;28;20170;-72
2021/05/23 05:14:50;;;;;;;1.40;1.30;;;;;;;9.03;96.93;99904.53;5071024;28;20182;-72
2021/05/23 05:17:15;;;;;;;1.23;1.23;;;;;;;9.01;97.17;99888.50;5071321;28;20174;-72
2021/05/23 05:19:41;;;;;;;1.27;1.23;;;;;;;9.00;97.14;99902.44;5070829;28;20166;-72
2021/05/23 05:22:06;;;;;;;1.37;1.10;;;;;;;8.99;97.08;99903.56;5071008;28;20220;-72
2021/05/23 05:24:32;;;;;;;1.40;1.30;;;;;;;8.96;96.99;99907.69;5070794;28;20874;-73
2021/05/23 05:26:58;;;;;;;1.13;1.13;;;;;;;8.95;96.76;99906.88;5070961;28;20209;-72
2021/05/23 05:29:24;;;;;;;1.00;1.00;;;;;;;8.91;96.92;99916.00;5070804;28;20182;-72
2021/05/23 05:31:50;;;;;;;1.37;1.27;;;;;;;8.79;97.23;99922.03;5070791;28;20179;-72
2021/05/23 05:34:15;;;;;;;1.70;1.60;;;;;;;8.78;97.40;99925.88;5070743;28;20285;-72
2021/05/23 05:36:41;;;;;;;1.63;1.53;;;;;;;8.77;97.69;99926.19;5070773;28;20706;-72
2021/05/23 05:39:07;;;;;;;1.57;1.30;;;;;;;8.77;97.89;99932.44;5070544;28;20292;-72
2021/05/23 05:41:33;;;;;;;1.60;1.50;;;;;;;8.78;97.94;99925.88;5070764;28;20170;-72
2021/05/23 05:43:58;;;;;;;0.80;0.80;;;;;;;8.77;98.01;99931.63;5069538;28;20213;-72
2021/05/23 05:46:24;;;;;;;1.57;1.47;;;;;;;8.73;98.38;99939.63;5070757;28;20202;-72
2021/05/23 05:48:49;;;;;;;1.37;1.27;;;;;;;8.73;98.74;99947.78;5070584;28;20232;-72
2021/05/23 05:51:14;;;;;;;1.77;1.67;;;;;;;8.72;98.58;99935.28;5070640;28;20182;-72
2021/05/23 05:53:40;;;;;;;2.50;1.83;;;;;;;8.76;99.44;99949.09;5070905;28;20182;-72
2021/05/23 05:56:06;;;;;;;1.50;1.27;;;;;;;8.72;100.00;99937.22;5070642;28;20645;-72
2021/05/23 05:58:31;;;;;;;2.13;1.93;;;;;;;8.71;100.00;99943.78;5070356;28;20248;-72
2021/05/23 06:00:57;;;;;;;1.40;1.30;;;;;;;8.67;100.00;99945.50;5069393;28;20242;-72
2021/05/23 06:03:22;;;;;;;0.80;0.80;;;;;;;8.71;100.00;99951.94;5070537;28;20193;-72
2021/05/23 06:05:47;;;;;;;1.97;1.53;;;;;;;8.69;100.00;99951.47;5070491;28;20217;-72
2021/05/23 06:08:13;;;;;;;1.87;1.77;;;;;;;8.69;100.00;99957.72;5070186;28;20182;-72
2021/05/23 06:10:39;;;;;;;1.47;1.30;;;;;;;8.73;100.00;99952.44;5070769;28;20249;-72
2021/05/23 06:13:05;;;;;;;1.33;1.20;;;;;;;8.74;100.00;99954.84;5070421;28;20538;-72
2021/05/23 06:15:32;;;;;;;1.00;1.00;;;;;;;8.80;100.00;99963.69;5070501;28;20170;-72
2021/05/23 06:17:57;;;;;;;2.20;2.10;;;;;;;8.81;100.00;99965.28;5074154;28;20232;-72
2021/05/23 06:20:23;;;;;;;1.27;1.00;;;;;;;8.81;100.00;99968.00;5074352;28;20210;-72
2021/05/23 06:22:48;;;;;;;1.40;1.30;;;;;;;8.92;100.00;99967.44;5074253;28;20198;-72
2021/05/23 06:25:14;;;;;;;1.03;0.90;;;;;;;8.94;100.00;99972.59;5074109;28;20228;-72
2021/05/23 06:27:39;;;;;;;1.43;1.30;;;;;;;8.99;100.00;99977.91;5074369;28;20186;-72
2021/05/23 06:30:06;;;;;;;1.13;1.13;;;;;;;8.97;100.00;99973.88;5074152;28;20214;-72
2021/05/23 06:32:31;;;;;;;0.60;0.60;;;;;;;8.97;100.00;99984.78;5074045;28;20248;-72
2021/05/23 06:34:56;;;;;;;1.10;1.10;;;;;;;8.99;100.00;99988.00;5073987;28;20540;-72
2021/05/23 06:37:22;;;;;;;1.40;1.30;;;;;;;8.97;100.00;99987.50;5073836;28;20206;-72
2021/05/23 06:39:47;;;;;;;1.20;1.10;;;;;;;8.93;100.00;99982.66;5072502;28;20179;-72
2021/05/23 06:42:13;;;;;;;1.57;1.30;;;;;;;8.98;100.00;99994.59;5073984;28;20177;-71
2021/05/23 06:44:38;;;;;;;1.63;1.53;;;;;;;8.92;100.00;100008.31;5073905;28;20538;-72
2021/05/23 06:47:03;;;;;;;1.40;1.30;;;;;;;9.00;100.00;100000.50;5073816;28;20562;-72
2021/05/23 06:49:29;;;;;;;0.87;0.87;;;;;;;9.10;100.00;100011.13;5073509;28;20174;-72
2021/05/23 06:51:55;;;;;;;1.67;1.27;;;;;;;9.15;100.00;100005.56;5073709;28;20191;-72
2021/05/23 06:54:20;;;;;;;0.73;0.73;;;;;;;9.16;100.00;100009.91;5073610;28;20572;-72
2021/05/23 06:56:46;;;;;;;1.10;1.00;;;;;;;9.18;100.00;100018.56;5073608;28;20532;-72
2021/05/23 06:59:11;;;;;;;1.03;1.03;;;;;;;9.25;100.00;100018.91;5073299;28;20300;-72
2021/05/23 07:01:37;;;;;;;0.63;0.63;;;;;;;9.34;100.00;100019.78;5072264;28;20184;-72
2021/05/23 07:04:03;;;;;;;0.70;0.70;;;;;;;9.33;99.44;100020.88;5073331;28;20181;-72
2021/05/23 07:06:28;;;;;;;2.00;1.77;;;;;;;9.40;99.29;100021.25;5073419;28;20212;-72
2021/05/23 07:08:53;;;;;;;2.00;1.53;;;;;;;9.45;99.07;100023.84;5073064;28;20285;-72
2021/05/23 07:11:19;;;;;;;1.30;1.20;;;;;;;9.54;99.03;100026.59;5073410;28;20175;-72
2021/05/23 07:13:44;;;;;;;1.50;1.40;;;;;;;9.58;98.75;100029.50;5072054;28;20174;-72
2021/05/23 07:16:10;;;;;;;0.83;0.83;;;;;;;9.68;99.19;100026.47;5073317;28;20635;-73
2021/05/23 07:18:35;;;;;;;1.23;1.13;;;;;;;9.76;98.86;100023.00;5072966;28;20243;-73
2021/05/23 07:21:01;;;;;;;0.33;0.33;;;;;;;9.71;96.76;100026.69;5073248;28;20657;-72
2021/05/23 07:23:27;;;;;;;0.63;0.63;;;;;;;9.82;96.46;100032.63;5073282;28;20174;-72
2021/05/23 07:25:53;;;;;;;0.80;0.80;;;;;;;9.77;95.32;100035.50;5073220;28;20435;-72
2021/05/23 07:28:18;;;;;;;1.60;1.50;;;;;;;9.69;94.13;100037.09;5072739;28;20522;-72
2021/05/23 07:30:44;;;;;;;0.57;0.57;;;;;;;9.74;94.89;100044.34;5073079;28;20633;-72
2021/05/23 07:33:09;;;;;;;1.20;1.10;;;;;;;9.74;95.62;100045.13;5072946;28;20582;-72
2021/05/23 07:35:35;;;;;;;1.10;1.00;;;;;;;9.71;95.70;100044.97;5072900;28;20648;-73
2021/05/23 07:38:00;;;;;;;1.53;1.33;;;;;;;9.71;95.21;100053.16;5072530;28;20194;-72
2021/05/23 07:40:26;;;;;;;1.23;1.17;;;;;;;9.78;96.08;100048.81;5072694;28;20239;-73
2021/05/23 07:42:51;;;;;;;1.20;1.10;;;;;;;9.79;96.27;100049.63;5072789;28;20166;-72
2021/05/23 07:45:17;;;;;;;0.83;0.83;;;;;;;9.83;96.34;100054.13;5072718;28;20179;-72
2021/05/23 07:47:42;;;;;;;1.37;1.27;;;;;;;9.85;96.15;100064.75;5072853;28;20206;-73
2021/05/23 07:50:09;;;;;;;1.10;1.00;;;;;;;9.70;95.06;100066.00;5072591;28;20179;-73
2021/05/23 07:52:35;;;;;;;1.13;1.10;;;;;;;9.71;96.42;100072.25;5072561;28;20307;-74
2021/05/23 07:55:00;;;;;;;1.83;1.27;;;;;;;9.66;96.50;100072.38;5072392;28;20205;-73
2021/05/23 07:57:27;;;;;;;4.03;1.10;;;;;;;9.69;97.10;100071.72;5072419;28;20234;-73
2021/05/23 07:59:52;;;;;;;0.80;0.80;;;;;;;9.75;97.77;100075.94;5072260;28;20188;-72
2021/05/23 08:02:18;;;;;;;0.87;0.87;;;;;;;9.70;97.31;100089.72;5072386;28;20171;-73
2021/05/23 08:04:43;;;;;;;1.07;1.07;;;;;;;9.69;97.67;100079.91;5072342;28;20178;-73
2021/05/23 08:07:08;;;;;;;1.57;1.00;;;;;;;9.59;96.50;100081.00;5072116;28;20197;-73
2021/05/23 08:09:34;;;;;;;0.87;0.87;;;;;;;9.65;97.26;100087.13;5072126;28;20228;-73
2021/05/23 08:11:59;;;;;;;1.00;1.00;;;;;;;9.67;97.99;100095.78;5072203;28;20175;-73
2021/05/23 08:14:24;;;;;;;2.00;1.70;;;;;;;9.54;97.48;100092.03;5072156;28;20206;-73
2021/05/23 08:16:50;;;;;;;1.23;1.13;;;;;;;9.51;98.06;100093.47;5072123;28;20277;-73
2021/05/23 08:19:16;;;;;;;1.10;1.10;;;;;;;9.60;99.28;100109.88;5071724;28;20233;-72
2021/05/23 08:21:42;;;;;;;0.97;0.97;;;;;;;9.48;99.15;100106.94;5071982;28;20171;-73
2021/05/23 08:24:09;;;;;;;1.40;1.30;;;;;;;9.45;98.68;100113.00;5072137;28;20178;-71
2021/05/23 08:26:34;;;;;;;1.23;1.13;;;;;;;9.43;98.54;100107.88;5071811;28;20261;-72
2021/05/23 08:29:00;;;;;;;2.00;0.80;;;;;;;9.37;98.32;100122.75;5071760;28;20309;-73
2021/05/23 08:31:26;;;;;;;0.77;0.77;;;;;;;9.30;97.15;100122.38;5072147;28;20197;-73
2021/05/23 08:33:52;;;;;;;1.43;1.33;;;;;;;9.23;96.88;100114.63;5071750;28;20178;-77
2021/05/23 08:36:18;;;;;;;1.20;1.10;;;;;;;9.24;97.95;100116.25;5071972;28;20173;-73
2021/05/23 08:38:47;;;;;;;1.03;1.03;;;;;;;9.30;97.71;100124.31;5071080;28;20650;-72
2021/05/23 08:41:20;;;;;;;1.50;1.40;;;;;;;9.31;97.22;100118.53;5072139;28;20189;-72
2021/05/23 08:43:46;;;;;;;1.10;1.00;;;;;;;9.37;97.55;100124.66;5071673;28;20170;-71
2021/05/23 08:46:12;;;;;;;1.10;1.00;;;;;;;9.39;97.25;100131.41;5071483;28;20526;-72
2021/05/23 08:48:39;;;;;;;1.40;1.27;;;;;;;9.41;97.89;100134.66;5071742;28;20176;-74
2021/05/23 08:51:05;;;;;;;0.40;0.40;;;;;;;9.41;98.05;100137.38;5071666;28;20639;-73
2021/05/23 08:53:30;;;;;;;0.70;0.70;;;;;;;9.48;99.08;100134.19;5071750;28;20208;-71
2021/05/23 08:55:56;;;;;;;0.47;0.47;;;;;;;9.55;99.37;100137.31;5071229;28;20174;-72
2021/05/23 08:58:24;;;;;;;1.40;1.30;;;;;;;9.64;99.38;100140.88;5071221;28;20210;-72
2021/05/23 09:00:49;;;;;;;0.57;0.57;;;;;;;9.81;99.73;100148.34;5071170;28;20558;-72
2021/05/23 09:03:16;;;;;;;0.40;0.40;;;;;;;9.70;97.06;100147.03;5071218;28;20232;-72
2021/05/23 09:05:48;;;;;;;1.20;1.07;;;;;;;9.76;98.02;100137.56;5071319;28;20176;-72
2021/05/23 09:08:25;;;;;;;1.10;1.10;;;;;;;9.72;97.15;100142.84;5070810;28;20500;-72
2021/05/23 09:11:04;;;;;;;0.83;0.83;;;;;;;9.80;97.90;100152.19;5071885;28;20158;-72
2021/05/23 09:13:37;;;;;;;1.00;0.83;;;;;;;9.81;97.90;100151.06;5070172;28;20660;-72
2021/05/23 09:16:03;;;;;;;1.17;1.10;;;;;;;9.80;98.25;100157.63;5071198;28;20182;-72
2021/05/23 09:18:38;;;;;;;1.40;1.30;;;;;;;9.80;98.21;100144.00;5070906;28;20194;-72
2021/05/23 09:21:04;;;;;;;0.77;0.77;;;;;;;9.79;98.04;100151.38;5071094;28;20170;-72
2021/05/23 09:23:40;;;;;;;1.60;1.13;;;;;;;9.76;97.75;100153.94;5069841;28;20166;-72
2021/05/23 09:26:05;;;;;;;0.70;0.70;;;;;;;9.69;96.61;100153.56;5068859;28;20228;-72
2021/05/23 09:28:31;;;;;;;3.50;1.30;;;;;;;9.62;96.56;100153.22;5071003;28;20182;-72
2021/05/23 09:30:56;;;;;;;1.50;0.83;;;;;;;9.59;95.71;100157.38;5070609;28;20174;-72
2021/05/23 09:33:22;;;;;;;1.47;1.37;;;;;;;9.62;94.60;100158.66;5070554;28;20174;-72
2021/05/23 09:35:48;;;;;;;0.70;0.70;;;;;;;9.71;94.55;100167.72;5070965;28;20182;-73
2021/05/23 09:38:17;;;;;;;1.13;0.80;;;;;;;9.82;94.84;100174.50;5071031;28;20226;-72
2021/05/23 09:40:44;;;;;;;1.43;1.03;;;;;;;9.80;94.26;100177.53;5070848;28;20166;-73
2021/05/23 09:43:18;;;;;;;0.20;0.20;;;;;;;9.78;93.75;100177.06;5070646;28;20178;-73
2021/05/23 09:45:48;;;;;;;0.57;0.53;;;;;;;9.81;94.69;100179.16;5070573;28;20249;-72
2021/05/23 09:48:27;;;;;;;0.83;0.83;;;;;;;9.74;94.52;100176.06;5070650;28;20205;-72
2021/05/23 09:50:57;;;;;;;0.80;0.80;;;;;;;9.74;94.36;100183.47;5073302;28;20178;-73
2021/05/23 09:53:33;;;;;;;0.70;0.70;;;;;;;9.72;94.52;100191.97;5074925;28;20198;-73
2021/05/23 09:56:09;;;;;;;0.40;0.40;;;;;;;9.67;94.83;100200.25;5074937;28;20169;-72
2021/05/23 09:58:39;;;;;;;0.67;0.67;;;;;;;9.68;95.71;100204.59;5074523;28;20202;-73
2021/05/23 10:01:07;;;;;;;0.40;0.40;;;;;;;9.65;95.34;100199.75;5074655;28;20209;-72
2021/05/23 10:03:35;;;;;;;0.80;0.80;;;;;;;9.65;95.40;100199.75;5074567;28;20194;-73
2021/05/23 10:06:01;;;;;;;1.00;0.87;;;;;;;9.67;95.51;100202.16;5074479;28;20177;-73
2021/05/23 10:08:28;;;;;;;0.40;0.40;;;;;;;9.72;95.88;100210.25;5074372;28;20183;-73
2021/05/23 10:10:54;;;;;;;0.57;0.57;;;;;;;9.72;95.30;100204.78;5074520;28;20214;-73
2021/05/23 10:13:22;;;;;;;0.50;0.50;;;;;;;9.76;94.82;100213.97;5074411;28;20174;-73
2021/05/23 10:15:48;;;;;;;0.30;0.30;;;;;;;9.72;93.21;100218.44;5074399;28;20209;-73
2021/05/23 10:18:14;;;;;;;0.30;0.30;;;;;;;9.67;92.56;100213.09;5074443;28;20202;-73
2021/05/23 10:20:39;;;;;;;0.20;0.20;;;;;;;9.62;92.67;100213.22;5074628;28;20224;-73
2021/05/23 10:23:14;;;;;;;0.23;0.23;;;;;;;9.59;92.93;100216.56;5074139;28;20179;-73
2021/05/23 10:25:46;;;;;;;0.30;0.10;;;;;;;9.60;93.85;100229.91;5074260;28;20257;-73
2021/05/23 10:28:12;;;;;;;0.50;0.50;;;;;;;9.66;93.67;100227.84;5074089;28;20163;-73
2021/05/23 10:30:49;;;;;;;0.10;0.10;;;;;;;9.65;91.93;100240.69;5074053;28;20206;-73
2021/05/23 10:33:14;;;;;;;0.53;0.50;;;;;;;9.68;92.52;100242.78;5074101;28;20175;-73
2021/05/23 10:35:45;;;;;;;0.47;0.47;;;;;;;9.72;93.16;100242.97;5074068;28;20826;-73
2021/05/23 10:38:14;;;;;;;0.20;0.20;;;;;;;9.75;94.47;100245.88;5073801;28;20294;-73
2021/05/23 10:41:00;;;;;;;0.27;0.27;;;;;;;9.69;94.45;100252.59;5073762;28;20178;-72
2021/05/23 10:43:33;;;;;;;0.30;0.30;;;;;;;9.68;93.85;100250.97;5073842;28;20178;-73
2021/05/23 10:46:10;;;;;;;0.30;0.30;;;;;;;9.70;94.40;100251.47;5073793;28;20178;-73
2021/05/23 10:48:36;;;;;;;0.40;0.40;;;;;;;9.72;94.65;100251.97;5073658;28;20163;-73
2021/05/23 10:51:12;;;;;;;0.00;0.00;;;;;;;9.68;93.93;100247.44;5073726;28;20185;-73
2021/05/23 10:53:37;;;;;;;0.30;0.30;;;;;;;9.69;95.14;100249.03;5073662;28;20257;-73
2021/05/23 10:56:04;;;;;;;0.20;0.20;;;;;;;9.67;94.03;100241.16;5073687;28;20581;-73
2021/05/23 10:58:29;;;;;;;0.63;0.63;;;;;;;9.62;94.45;100249.47;5072081;28;20206;-73
2021/05/23 11:00:57;;;;;;;0.40;0.40;;;;;;;9.65;94.84;100250.78;5073501;28;20269;-73
2021/05/23 11:03:25;;;;;;;0.40;0.40;;;;;;;9.67;95.09;100248.53;5072730;28;20174;-73
2021/05/23 11:06:05;;;;;;;0.30;0.30;;;;;;;9.79;95.28;100252.34;5073436;28;20641;-72
2021/05/23 11:08:32;;;;;;;0.47;0.47;;;;;;;9.92;95.02;100255.31;5074335;28;20227;-73
2021/05/23 11:10:58;;;;;;;0.60;0.50;;;;;;;10.00;94.51;100255.38;5075271;28;20182;-73
2021/05/23 11:13:23;;;;;;;0.10;0.10;;;;;;;10.04;92.85;100250.88;5073301;28;20700;-73
2021/05/23 11:15:49;;;;;;;0.17;0.17;;;;;;;10.14;93.02;100255.28;5072238;28;20174;-73
2021/05/23 11:18:26;;;;;;;0.10;0.10;;;;;;;10.29;93.31;100260.38;5073100;28;20210;-72
2021/05/23 11:20:58;;;;;;;0.17;0.17;;;;;;;10.41;92.34;100268.78;5073259;28;20695;-73
2021/05/23 11:23:25;;;;;;;0.30;0.30;;;;;;;10.55;92.78;100265.94;5073548;28;20257;-72
2021/05/23 11:26:10;;;;;;;0.47;0.47;;;;;;;10.68;93.19;100278.69;5073158;28;20299;-73
2021/05/23 11:28:36;;;;;;;0.27;0.27;;;;;;;10.71;93.20;100274.53;5072878;28;20213;-73
2021/05/23 11:31:01;;;;;;;0.67;0.67;;;;;;;10.61;91.74;100280.28;5073040;28;20265;-73
2021/05/23 11:33:26;;;;;;;0.40;0.40;;;;;;;10.56;91.54;100275.75;5072931;28;20201;-73
2021/05/23 11:35:53;;;;;;;0.60;0.60;;;;;;;10.44;90.90;100281.00;5072910;28;20179;-73